Time;durP1;ratioP1;P1;durP2;ratioP2;P2;SDS_P1;SDS_P2;PMS_P1;PMS_P2;Temp;Humidity;BMP_temperature;BMP_pressure;BME280_temperature;BME280_humidity;BME280_pressure;Samples;Min_cycle;Max_cycle;Signal;HPM_P1;HPM_P2
2023/08/20 00:02:32;;;;;;;0.17;0.17;;;;;;;25.68;100.00;101962.69;10493522;28;20048;-77
2023/08/20 00:07:34;;;;;;;0.00;0.00;;;;;;;25.74;100.00;101958.16;10493139;28;20109;-77
2023/08/20 00:12:35;;;;;;;0.00;0.00;;;;;;;25.60;100.00;101960.22;10471359;28;20056;-78
2023/08/20 00:17:39;;;;;;;0.00;0.00;;;;;;;25.89;100.00;101964.03;10474875;28;20044;-77
2023/08/20 00:22:47;;;;;;;0.00;0.00;;;;;;;25.29;100.00;101966.94;10483630;28;20147;-78
2023/08/20 00:27:49;;;;;;;0.30;0.08;;;;;;;24.31;100.00;101965.03;10488030;28;20619;-78
2023/08/20 00:32:50;;;;;;;0.10;0.10;;;;;;;24.38;100.00;101971.97;10458529;28;20138;-77
2023/08/20 00:37:52;;;;;;;0.00;0.00;;;;;;;23.22;100.00;101977.75;10473320;28;20422;-78
2023/08/20 00:42:54;;;;;;;0.38;0.15;;;;;;;23.70;100.00;101980.75;10470889;28;20199;-77
2023/08/20 00:47:56;;;;;;;0.35;0.03;;;;;;;23.97;100.00;101997.09;10463989;28;20048;-78
2023/08/20 00:52:58;;;;;;;0.00;0.00;;;;;;;25.04;100.00;102003.41;10473876;28;20127;-77
2023/08/20 00:58:00;;;;;;;0.00;0.00;;;;;;;25.09;100.00;102017.41;10469060;28;20057;-79
2023/08/20 01:03:01;;;;;;;0.00;0.00;;;;;;;25.03;100.00;102012.22;10487764;28;20457;-78
2023/08/20 01:08:18;;;;;;;0.00;0.00;;;;;;;24.28;100.00;102012.47;10469834;28;20062;-79
2023/08/20 01:13:19;;;;;;;0.00;0.00;;;;;;;24.64;100.00;102006.69;10484509;28;20078;-79
2023/08/20 01:18:21;;;;;;;0.57;0.25;;;;;;;25.52;100.00;101994.66;10468364;28;20048;-78
2023/08/20 01:24:01;;;;;;;0.00;0.00;;;;;;;25.60;100.00;101978.69;10454942;28;20268;-77
2023/08/20 01:29:04;;;;;;;0.00;0.00;;;;;;;24.95;100.00;101964.91;10473079;28;20076;-78
2023/08/20 01:34:06;;;;;;;0.15;0.15;;;;;;;24.69;100.00;101965.38;10465297;28;20174;-79
2023/08/20 01:39:08;;;;;;;0.00;0.00;;;;;;;25.06;100.00;101982.34;10491292;28;20491;-79
2023/08/20 01:44:09;;;;;;;0.20;0.00;;;;;;;25.79;100.00;101992.38;10473468;28;20041;-79
2023/08/20 01:49:11;;;;;;;0.00;0.00;;;;;;;25.56;100.00;102001.63;10456563;28;20083;-78
2023/08/20 01:54:13;;;;;;;0.25;0.10;;;;;;;24.92;100.00;102020.31;10490953;28;20487;-78
2023/08/20 01:59:14;;;;;;;0.10;0.10;;;;;;;25.82;100.00;102031.91;10473023;28;20477;-77
2023/08/20 02:04:16;;;;;;;1.13;0.15;;;;;;;24.55;100.00;102036.66;10461150;28;20044;-79
2023/08/20 02:09:19;;;;;;;0.05;0.05;;;;;;;24.75;100.00;102041.69;10489814;28;20048;-78
2023/08/20 02:14:21;;;;;;;0.90;0.52;;;;;;;24.79;100.00;102050.41;10464806;28;20053;-78
2023/08/20 02:19:23;;;;;;;0.10;0.10;;;;;;;24.49;100.00;102055.19;10470367;28;20102;-79
2023/08/20 02:24:25;;;;;;;0.20;0.10;;;;;;;24.47;100.00;102055.22;10484449;28;20128;-78
2023/08/20 02:29:27;;;;;;;0.25;0.20;;;;;;;25.01;100.00;102041.25;10475386;28;20151;-78
2023/08/20 02:34:29;;;;;;;0.40;0.28;;;;;;;25.32;100.00;102046.00;10454411;28;20500;-78
2023/08/20 02:39:31;;;;;;;1.40;0.52;;;;;;;25.94;100.00;102034.31;10489314;28;20212;-78
2023/08/20 02:44:32;;;;;;;1.55;0.57;;;;;;;25.41;100.00;102033.59;10469788;28;20179;-78
2023/08/20 02:49:34;;;;;;;0.10;0.10;;;;;;;24.53;100.00;102035.84;10488547;28;20578;-79
2023/08/20 02:54:37;;;;;;;0.85;0.63;;;;;;;26.03;100.00;102037.63;10483466;28;20040;-79
2023/08/20 02:59:38;;;;;;;0.00;0.00;;;;;;;26.71;100.00;102044.06;10470965;28;20052;-79
2023/08/20 03:04:40;;;;;;;0.13;0.05;;;;;;;25.69;100.00;102033.06;10469870;28;20083;-79
2023/08/20 03:09:42;;;;;;;0.43;0.15;;;;;;;25.90;100.00;102032.63;10459424;28;20076;-79
2023/08/20 03:14:43;;;;;;;0.00;0.00;;;;;;;25.12;100.00;102027.03;10468068;28;20049;-79
2023/08/20 03:19:59;;;;;;;1.60;0.73;;;;;;;24.73;100.00;102017.09;10471347;28;20503;-79
2023/08/20 03:25:01;;;;;;;0.75;0.45;;;;;;;24.95;100.00;102016.75;10489147;28;20036;-78
2023/08/20 03:30:04;;;;;;;0.30;0.30;;;;;;;25.25;100.00;102007.47;10488535;28;20457;-79
2023/08/20 03:35:06;;;;;;;0.30;0.30;;;;;;;25.59;100.00;102017.38;10474432;28;20037;-78
2023/08/20 03:40:08;;;;;;;0.05;0.05;;;;;;;25.47;100.00;102010.56;10496140;28;20049;-78
2023/08/20 03:45:10;;;;;;;0.65;0.20;;;;;;;25.74;100.00;102004.78;10461312;28;20131;-78
2023/08/20 03:50:11;;;;;;;0.10;0.10;;;;;;;25.57;100.00;102002.50;10495576;28;20056;-78
2023/08/20 03:55:13;;;;;;;0.17;0.15;;;;;;;26.01;100.00;102005.13;10477518;28;20067;-77
2023/08/20 04:00:14;;;;;;;0.20;0.15;;;;;;;26.36;100.00;102011.44;10477270;28;20048;-79
2023/08/20 04:05:16;;;;;;;0.00;0.00;;;;;;;26.19;100.00;102017.94;10484361;28;20679;-79
2023/08/20 04:10:17;;;;;;;0.00;0.00;;;;;;;25.78;100.00;102023.19;10478625;28;20114;-79
2023/08/20 04:15:19;;;;;;;0.00;0.00;;;;;;;24.85;100.00;102029.22;10467830;28;20529;-78
2023/08/20 04:20:21;;;;;;;0.00;0.00;;;;;;;25.62;100.00;102032.28;10473850;28;20114;-78
2023/08/20 04:25:22;;;;;;;0.28;0.10;;;;;;;25.33;100.00;102037.19;10482611;28;20063;-78
2023/08/20 04:30:24;;;;;;;0.63;0.30;;;;;;;24.97;100.00;102036.94;10476024;28;20048;-78
2023/08/20 04:35:26;;;;;;;0.08;0.08;;;;;;;25.00;100.00;102034.25;10441534;28;20040;-79
2023/08/20 04:40:27;;;;;;;0.10;0.10;;;;;;;24.55;100.00;102036.66;10460884;28;20079;-78
2023/08/20 04:45:29;;;;;;;0.10;0.00;;;;;;;24.23;100.00;102048.53;10475770;28;20041;-78
2023/08/20 04:50:31;;;;;;;0.25;0.20;;;;;;;24.01;100.00;102055.84;10446593;28;20113;-79
2023/08/20 04:55:34;;;;;;;0.45;0.20;;;;;;;25.80;100.00;102044.28;10474362;28;20057;-78
2023/08/20 05:00:35;;;;;;;0.00;0.00;;;;;;;25.92;100.00;102048.41;10483636;28;20040;-78
2023/08/20 05:05:48;;;;;;;0.00;0.00;;;;;;;25.51;100.00;102050.97;10473155;28;20044;-78
2023/08/20 05:10:51;;;;;;;0.10;0.10;;;;;;;26.23;100.00;102056.63;10474039;28;20040;-79
2023/08/20 05:15:52;;;;;;;0.00;0.00;;;;;;;26.21;100.00;102058.41;10490079;28;20514;-78
2023/08/20 05:20:54;;;;;;;0.10;0.10;;;;;;;26.33;100.00;102061.69;10474309;28;20041;-78
2023/08/20 05:25:55;;;;;;;0.00;0.00;;;;;;;26.37;100.00;102058.06;10473568;28;20071;-78
2023/08/20 05:30:58;;;;;;;0.00;0.00;;;;;;;26.04;100.00;102066.66;10473410;28;20399;-78
2023/08/20 05:36:00;;;;;;;0.10;0.10;;;;;;;26.31;100.00;102085.50;10474880;28;20055;-78
2023/08/20 05:41:02;;;;;;;0.00;0.00;;;;;;;25.93;100.00;102080.09;10465046;28;20493;-78
2023/08/20 05:46:03;;;;;;;0.00;0.00;;;;;;;26.28;100.00;102086.44;10461660;28;20044;-78
2023/08/20 05:51:05;;;;;;;0.10;0.08;;;;;;;27.16;100.00;102083.56;10471386;28;20045;-78
2023/08/20 05:56:08;;;;;;;0.45;0.10;;;;;;;26.88;100.00;102097.47;10472492;28;20396;-77
2023/08/20 06:01:10;;;;;;;0.25;0.10;;;;;;;26.41;100.00;102086.16;10456270;28;20044;-79
2023/08/20 06:06:13;;;;;;;0.10;0.10;;;;;;;27.29;100.00;102088.53;10473011;28;20777;-78
2023/08/20 06:11:14;;;;;;;0.20;0.17;;;;;;;28.39;100.00;102093.47;10475176;28;20094;-79
2023/08/20 06:16:16;;;;;;;0.15;0.15;;;;;;;28.67;100.00;102088.19;10483837;28;20044;-79
2023/08/20 06:21:17;;;;;;;0.15;0.15;;;;;;;28.40;100.00;102090.81;10491224;28;20040;-79
2023/08/20 06:26:20;;;;;;;1.48;1.05;;;;;;;29.01;100.00;102095.06;10488332;28;20028;-78
2023/08/20 06:31:21;;;;;;;0.85;0.50;;;;;;;27.95;100.00;102102.66;10480726;28;20094;-79
2023/08/20 06:36:23;;;;;;;1.40;0.82;;;;;;;28.88;100.00;102104.34;10487558;28;20032;-80
2023/08/20 06:41:24;;;;;;;0.00;0.00;;;;;;;29.24;100.00;102110.25;10489064;28;20056;-79
2023/08/20 06:46:26;;;;;;;0.10;0.10;;;;;;;29.85;100.00;102108.16;10460889;28;20110;-78
2023/08/20 06:51:28;;;;;;;2.95;0.45;;;;;;;29.65;100.00;102107.09;10491082;28;20067;-79
2023/08/20 06:56:29;;;;;;;0.00;0.00;;;;;;;30.47;100.00;102112.03;10470430;28;20044;-79
2023/08/20 07:01:31;;;;;;;0.20;0.10;;;;;;;30.45;100.00;102113.03;10469455;28;20782;-78
2023/08/20 07:06:32;;;;;;;0.15;0.15;;;;;;;30.72;100.00;102110.25;10489090;28;20091;-80
2023/08/20 07:11:35;;;;;;;1.00;0.55;;;;;;;30.49;100.00;102117.31;10473507;28;20097;-79
2023/08/20 07:16:36;;;;;;;0.10;0.10;;;;;;;31.66;100.00;102124.13;10485485;28;20045;-78
2023/08/20 07:21:38;;;;;;;1.67;0.15;;;;;;;31.95;100.00;102131.66;10493364;28;20819;-80
2023/08/20 07:26:40;;;;;;;0.00;0.00;;;;;;;31.20;100.00;102129.59;10498699;28;20094;-80
2023/08/20 07:31:41;;;;;;;0.20;0.10;;;;;;;31.86;100.00;102126.75;10498617;28;20094;-78
2023/08/20 07:36:43;;;;;;;0.03;0.03;;;;;;;32.25;100.00;102128.56;10472933;28;20067;-80
2023/08/20 07:41:44;;;;;;;0.10;0.10;;;;;;;32.37;100.00;102120.91;10497411;28;20055;-80
2023/08/20 07:46:46;;;;;;;0.00;0.00;;;;;;;32.15;100.00;102127.22;10478515;28;20041;-81
2023/08/20 07:51:48;;;;;;;0.30;0.10;;;;;;;32.75;100.00;102128.84;10497880;28;20102;-79
2023/08/20 07:56:50;;;;;;;0.00;0.00;;;;;;;32.63;100.00;102129.47;10479624;28;20396;-79
2023/08/20 08:01:51;;;;;;;0.00;0.00;;;;;;;32.21;100.00;102124.28;10488309;28;20048;-80
2023/08/20 08:06:52;;;;;;;0.55;0.10;;;;;;;32.41;100.00;102133.16;10487965;28;20103;-79
2023/08/20 08:11:54;;;;;;;0.00;0.00;;;;;;;33.43;100.00;102128.19;10473714;28;20224;-81
2023/08/20 08:16:56;;;;;;;0.38;0.25;;;;;;;34.09;100.00;102131.84;10474783;28;20056;-80
2023/08/20 08:21:58;;;;;;;0.98;0.10;;;;;;;32.47;100.00;102140.03;10491714;28;20109;-81
2023/08/20 08:26:59;;;;;;;0.00;0.00;;;;;;;33.02;100.00;102139.16;10469443;28;20122;-80
2023/08/20 08:32:01;;;;;;;0.00;0.00;;;;;;;32.35;100.00;102144.13;10477037;28;20110;-79
2023/08/20 08:37:02;;;;;;;0.25;0.10;;;;;;;33.78;100.00;102149.50;10478395;28;20078;-80
2023/08/20 08:42:05;;;;;;;0.00;0.00;;;;;;;34.09;100.00;102158.59;10485663;28;20048;-81
2023/08/20 08:47:07;;;;;;;0.00;0.00;;;;;;;35.56;100.00;102157.44;10490597;28;20040;-80
2023/08/20 08:52:10;;;;;;;0.10;0.10;;;;;;;34.60;100.00;102157.59;10472876;28;20044;-82
2023/08/20 08:57:12;;;;;;;0.00;0.00;;;;;;;35.07;100.00;102164.75;10490974;28;20510;-83
2023/08/20 09:02:17;;;;;;;0.85;0.30;;;;;;;32.64;100.00;102168.56;10472880;28;20478;-83
2023/08/20 09:07:18;;;;;;;0.30;0.28;;;;;;;35.37;100.00;102168.41;10470474;28;20044;-82
2023/08/20 09:12:20;;;;;;;0.93;0.32;;;;;;;34.09;100.00;102174.63;10478697;28;20315;-83
2023/08/20 09:17:25;;;;;;;0.85;0.20;;;;;;;35.28;100.00;102169.78;10468994;28;20043;-82
2023/08/20 09:22:27;;;;;;;0.00;0.00;;;;;;;35.83;100.00;102168.28;10481864;28;20048;-81
2023/08/20 09:27:28;;;;;;;0.00;0.00;;;;;;;35.86;100.00;102169.91;10466930;28;20063;-83
2023/08/20 09:32:30;;;;;;;0.25;0.20;;;;;;;33.91;100.00;102171.13;10469740;28;20555;-79
2023/08/20 09:37:32;;;;;;;0.00;0.00;;;;;;;34.89;100.00;102163.13;10480339;28;20036;-80
2023/08/20 09:42:35;;;;;;;0.15;0.15;;;;;;;35.74;100.00;102166.19;10454097;28;20097;-79
2023/08/20 09:47:40;;;;;;;0.38;0.38;;;;;;;33.21;100.00;102172.00;10485325;28;20090;-80
2023/08/20 09:52:53;;;;;;;0.45;0.40;;;;;;;36.27;100.00;102161.09;10477877;28;20121;-79
2023/08/20 09:57:56;;;;;;;0.20;0.10;;;;;;;33.20;100.00;102175.59;10469057;28;20102;-79
2023/08/20 10:02:59;;;;;;;1.50;0.32;;;;;;;33.00;100.00;102162.38;10477005;28;20041;-79
2023/08/20 10:08:00;;;;;;;0.40;0.25;;;;;;;33.89;100.00;102175.69;10477012;28;20047;-79
2023/08/20 10:13:03;;;;;;;0.20;0.17;;;;;;;34.28;100.00;102165.63;10484335;28;20040;-79
2023/08/20 10:18:04;;;;;;;0.52;0.25;;;;;;;35.81;100.00;102166.66;10487264;28;20594;-80
2023/08/20 10:23:06;;;;;;;0.10;0.10;;;;;;;33.88;100.00;102165.09;10472005;28;20419;-80
2023/08/20 10:28:26;;;;;;;0.10;0.03;;;;;;;36.35;100.00;102171.34;10458532;28;20063;-81
2023/08/20 10:33:27;;;;;;;0.00;0.00;;;;;;;36.00;100.00;102175.31;10467707;28;20110;-80
2023/08/20 10:38:37;;;;;;;0.00;0.00;;;;;;;36.81;100.00;102179.09;10466559;28;20053;-79
2023/08/20 10:43:45;;;;;;;0.00;0.00;;;;;;;36.06;100.00;102176.75;10475624;28;20048;-79
2023/08/20 10:48:51;;;;;;;0.10;0.10;;;;;;;36.30;100.00;102160.91;10502527;28;20052;-79
2023/08/20 10:54:02;;;;;;;0.22;0.10;;;;;;;35.73;96.83;102159.94;10499332;28;20074;-81
2023/08/20 10:59:25;;;;;;;0.00;0.00;;;;;;;36.34;94.12;102149.03;10500725;28;20896;-80
2023/08/20 11:04:34;;;;;;;2.38;0.73;;;;;;;36.33;93.82;102158.03;10481968;28;20049;-81
2023/08/20 11:09:36;;;;;;;0.00;0.00;;;;;;;36.45;89.17;102150.19;10494079;28;20100;-79
2023/08/20 11:14:37;;;;;;;0.43;0.00;;;;;;;35.95;91.18;102160.47;10486637;28;20041;-79
2023/08/20 11:19:40;;;;;;;0.00;0.00;;;;;;;36.41;89.85;102148.66;10480906;28;20572;-81
2023/08/20 11:24:42;;;;;;;0.30;0.10;;;;;;;35.77;89.25;102154.41;10465742;28;20048;-81
2023/08/20 11:29:44;;;;;;;0.00;0.00;;;;;;;35.78;87.48;102156.13;10469847;28;20878;-79
2023/08/20 11:34:49;;;;;;;0.00;0.00;;;;;;;35.75;89.65;102159.84;10473562;28;20082;-80
2023/08/20 11:39:51;;;;;;;0.00;0.00;;;;;;;37.12;92.21;102157.44;10469398;28;20052;-80
2023/08/20 11:44:56;;;;;;;0.00;0.00;;;;;;;36.16;87.31;102140.34;10480885;28;20093;-79
2023/08/20 11:50:08;;;;;;;0.10;0.10;;;;;;;35.99;89.06;102154.81;10490093;28;20045;-80
2023/08/20 11:55:10;;;;;;;0.20;0.20;;;;;;;35.69;88.49;102152.19;10492111;28;20036;-80
2023/08/20 12:00:24;;;;;;;0.00;0.00;;;;;;;36.28;89.61;102144.06;10464405;28;20063;-79
2023/08/20 12:05:29;;;;;;;0.10;0.00;;;;;;;36.65;86.62;102139.00;10480638;28;20063;-80
2023/08/20 12:10:32;;;;;;;0.00;0.00;;;;;;;35.87;87.68;102139.44;10476346;28;20057;-79
2023/08/20 12:15:33;;;;;;;0.00;0.00;;;;;;;35.97;85.13;102129.91;10470937;28;20082;-79
2023/08/20 12:20:35;;;;;;;0.00;0.00;;;;;;;37.02;86.84;102137.53;10475927;28;20116;-80
2023/08/20 12:25:37;;;;;;;0.00;0.00;;;;;;;36.68;84.02;102125.34;10481333;28;20052;-79
2023/08/20 12:30:39;;;;;;;0.00;0.00;;;;;;;35.52;87.85;102121.91;10467582;28;20056;-79
2023/08/20 12:35:40;;;;;;;0.00;0.00;;;;;;;36.98;84.96;102121.59;10496576;28;20491;-80
2023/08/20 12:40:42;;;;;;;0.00;0.00;;;;;;;35.96;86.80;102112.09;10476998;28;20055;-81
2023/08/20 12:45:44;;;;;;;0.20;0.00;;;;;;;35.83;87.20;102101.25;10495449;28;20457;-79
2023/08/20 12:50:46;;;;;;;0.03;0.03;;;;;;;36.67;85.38;102102.19;10493861;28;20060;-79
2023/08/20 12:55:47;;;;;;;0.00;0.00;;;;;;;35.13;90.56;102095.69;10495814;28;20457;-80
2023/08/20 13:00:49;;;;;;;0.00;0.00;;;;;;;36.83;85.59;102090.38;10465066;28;20052;-80
2023/08/20 13:05:51;;;;;;;0.00;0.00;;;;;;;36.51;86.82;102093.44;10474018;28;20055;-79
2023/08/20 13:10:57;;;;;;;2.33;0.00;;;;;;;36.71;85.08;102091.22;10489419;28;20063;-80
2023/08/20 13:15:59;;;;;;;0.00;0.00;;;;;;;36.90;88.67;102102.47;10465889;28;20036;-80
2023/08/20 13:21:03;;;;;;;0.00;0.00;;;;;;;36.13;83.36;102102.13;10477988;28;20040;-79
2023/08/20 13:26:05;;;;;;;0.00;0.00;;;;;;;35.55;82.67;102107.50;10486335;28;20044;-80
2023/08/20 13:31:08;;;;;;;0.00;0.00;;;;;;;36.39;88.04;102104.91;10479021;28;20159;-79
2023/08/20 13:36:10;;;;;;;0.00;0.00;;;;;;;36.87;85.37;102113.41;10493495;28;20044;-80
2023/08/20 13:41:11;;;;;;;0.00;0.00;;;;;;;35.50;82.94;102110.47;10492261;28;20052;-79
2023/08/20 13:46:13;;;;;;;0.00;0.00;;;;;;;35.84;84.97;102112.84;10476006;28;20044;-80
2023/08/20 13:51:15;;;;;;;0.75;0.52;;;;;;;36.02;86.05;102114.38;10474796;28;20540;-80
2023/08/20 13:56:17;;;;;;;0.40;0.40;;;;;;;36.74;80.71;102109.81;10493466;28;20369;-80
2023/08/20 14:01:18;;;;;;;0.00;0.00;;;;;;;37.51;81.74;102109.97;10492268;28;20106;-79
2023/08/20 14:06:20;;;;;;;0.10;0.08;;;;;;;36.24;85.43;102115.69;10477453;28;20124;-79
2023/08/20 14:11:21;;;;;;;0.00;0.00;;;;;;;37.10;83.66;102108.31;10477293;28;20090;-80
2023/08/20 14:16:23;;;;;;;0.00;0.00;;;;;;;36.83;85.82;102112.75;10491978;28;20057;-79
2023/08/20 14:21:24;;;;;;;0.00;0.00;;;;;;;36.68;84.15;102103.88;10474702;28;20045;-80
2023/08/20 14:26:26;;;;;;;0.00;0.00;;;;;;;36.03;82.41;102097.34;10460054;28;20036;-80
2023/08/20 14:31:28;;;;;;;0.13;0.00;;;;;;;36.29;86.78;102096.63;10468074;28;20174;-80
2023/08/20 14:36:30;;;;;;;0.00;0.00;;;;;;;36.77;82.65;102091.69;10491753;28;20052;-79
2023/08/20 14:41:32;;;;;;;0.10;0.10;;;;;;;36.74;83.93;102096.41;10466015;28;20055;-80
2023/08/20 14:46:33;;;;;;;0.00;0.00;;;;;;;35.99;82.66;102082.41;10479843;28;20037;-79
2023/08/20 14:51:35;;;;;;;0.00;0.00;;;;;;;35.76;86.02;102083.84;10479142;28;20072;-80
2023/08/20 14:56:36;;;;;;;0.00;0.00;;;;;;;36.57;82.53;102084.97;10483391;28;20036;-80
2023/08/20 15:01:38;;;;;;;0.00;0.00;;;;;;;36.24;83.79;102085.34;10476699;28;20044;-79
2023/08/20 15:06:39;;;;;;;0.00;0.00;;;;;;;36.13;87.99;102086.03;10484513;28;20071;-79
2023/08/20 15:11:42;;;;;;;0.00;0.00;;;;;;;36.32;88.81;102086.53;10485849;28;20040;-80
2023/08/20 15:16:45;;;;;;;0.00;0.00;;;;;;;36.01;94.10;102076.94;10492006;28;20040;-79
2023/08/20 15:21:47;;;;;;;1.35;0.85;;;;;;;36.06;89.42;102072.13;10471212;28;20102;-79
2023/08/20 15:26:48;;;;;;;0.00;0.00;;;;;;;36.39;90.59;102080.75;10474657;28;20041;-78
2023/08/20 15:31:51;;;;;;;0.00;0.00;;;;;;;35.33;88.44;102067.72;10476602;28;20048;-79
2023/08/20 15:36:53;;;;;;;0.00;0.00;;;;;;;35.88;88.94;102072.34;10490835;28;20041;-79
2023/08/20 15:41:54;;;;;;;0.00;0.00;;;;;;;34.93;98.18;102100.44;10477291;28;20059;-79
2023/08/20 15:46:56;;;;;;;0.00;0.00;;;;;;;34.19;97.19;102093.91;10496335;28;20445;-79
2023/08/20 15:51:57;;;;;;;0.00;0.00;;;;;;;35.80;99.41;102089.84;10501242;28;20040;-79
2023/08/20 15:56:59;;;;;;;0.00;0.00;;;;;;;35.65;98.49;102089.03;10490994;28;20161;-78
2023/08/20 16:02:01;;;;;;;0.00;0.00;;;;;;;35.16;95.51;102090.19;10499349;28;20051;-79
2023/08/20 16:07:03;;;;;;;0.32;0.05;;;;;;;34.37;95.77;102073.31;10474652;28;20048;-79
2023/08/20 16:12:05;;;;;;;0.00;0.00;;;;;;;35.94;90.89;102065.75;10480528;28;20102;-80
2023/08/20 16:17:10;;;;;;;0.00;0.00;;;;;;;35.35;96.48;102079.22;10493371;28;20044;-79
2023/08/20 16:22:12;;;;;;;0.00;0.00;;;;;;;36.31;96.33;102081.28;10481129;28;20045;-79
2023/08/20 16:27:13;;;;;;;0.00;0.00;;;;;;;35.96;91.11;102069.19;10494031;28;20051;-79
2023/08/20 16:32:15;;;;;;;0.00;0.00;;;;;;;35.19;93.76;102080.13;10498797;28;20074;-80
2023/08/20 16:37:17;;;;;;;0.00;0.00;;;;;;;34.73;96.11;102078.38;10458413;28;20127;-80
2023/08/20 16:42:18;;;;;;;0.00;0.00;;;;;;;35.22;93.40;102074.56;10479999;28;20052;-79
2023/08/20 16:47:20;;;;;;;0.00;0.00;;;;;;;36.01;94.82;102075.13;10480005;28;20040;-78
2023/08/20 16:52:22;;;;;;;0.00;0.00;;;;;;;34.67;95.13;102073.34;10493084;28;20040;-78
2023/08/20 16:57:23;;;;;;;0.00;0.00;;;;;;;35.05;96.67;102072.94;10478225;28;20040;-79
2023/08/20 17:02:25;;;;;;;0.00;0.00;;;;;;;34.33;100.00;102085.97;10492214;28;20055;-79
2023/08/20 17:07:26;;;;;;;0.00;0.00;;;;;;;33.85;100.00;102073.44;10496597;28;20535;-80
2023/08/20 17:12:28;;;;;;;0.00;0.00;;;;;;;34.53;100.00;102090.22;10476466;28;20078;-79
2023/08/20 17:17:30;;;;;;;0.00;0.00;;;;;;;34.05;100.00;102082.19;10485366;28;20049;-79
2023/08/20 17:22:31;;;;;;;0.00;0.00;;;;;;;34.08;99.97;102082.00;10487068;28;20048;-79
2023/08/20 17:27:33;;;;;;;0.10;0.10;;;;;;;35.20;100.00;102089.03;10476982;28;20495;-79
2023/08/20 17:32:35;;;;;;;0.00;0.00;;;;;;;34.65;100.00;102091.34;10492558;28;20789;-80
2023/08/20 17:37:38;;;;;;;0.00;0.00;;;;;;;33.66;100.00;102086.88;10477765;28;20086;-80
2023/08/20 17:42:40;;;;;;;0.10;0.00;;;;;;;32.83;100.00;102086.69;10489014;28;20048;-79
2023/08/20 17:47:41;;;;;;;0.00;0.00;;;;;;;32.81;100.00;102077.88;10489752;28;20423;-79
2023/08/20 17:52:43;;;;;;;0.08;0.08;;;;;;;32.90;100.00;102081.91;10493126;28;20044;-79
2023/08/20 17:57:44;;;;;;;0.00;0.00;;;;;;;32.97;100.00;102080.66;10494385;28;20037;-79
2023/08/20 18:02:46;;;;;;;0.00;0.00;;;;;;;33.68;100.00;102085.00;10474935;28;20466;-79
2023/08/20 18:07:47;;;;;;;0.00;0.00;;;;;;;33.07;100.00;102097.06;10471145;28;20147;-78
2023/08/20 18:12:49;;;;;;;0.00;0.00;;;;;;;33.52;100.00;102093.00;10480037;28;20075;-78
2023/08/20 18:17:52;;;;;;;0.00;0.00;;;;;;;33.11;100.00;102095.97;10467789;28;20082;-79
2023/08/20 18:22:53;;;;;;;0.00;0.00;;;;;;;33.57;100.00;102097.22;10466181;28;20044;-78
2023/08/20 18:27:55;;;;;;;0.00;0.00;;;;;;;33.12;100.00;102095.03;10480678;28;20044;-78
2023/08/20 18:32:56;;;;;;;0.00;0.00;;;;;;;32.73;100.00;102086.25;10480694;28;20500;-78
2023/08/20 18:37:58;;;;;;;0.00;0.00;;;;;;;32.88;100.00;102079.31;10489012;28;20040;-78
2023/08/20 18:42:59;;;;;;;0.00;0.00;;;;;;;32.32;100.00;102098.94;10466722;28;20469;-78
2023/08/20 18:48:03;;;;;;;0.00;0.00;;;;;;;31.83;100.00;102094.94;10466739;28;20048;-78
2023/08/20 18:53:04;;;;;;;0.03;0.03;;;;;;;31.59;100.00;102103.06;10470052;28;20037;-79
2023/08/20 18:58:07;;;;;;;0.00;0.00;;;;;;;31.49;100.00;102107.03;10485722;28;20552;-79
2023/08/20 19:03:10;;;;;;;0.00;0.00;;;;;;;31.63;100.00;102109.97;10490874;28;20455;-79
2023/08/20 19:08:13;;;;;;;0.00;0.00;;;;;;;31.72;100.00;102118.50;10491436;28;20578;-78
2023/08/20 19:13:14;;;;;;;0.10;0.08;;;;;;;31.55;100.00;102133.41;10485495;28;20036;-78
2023/08/20 19:18:17;;;;;;;0.00;0.00;;;;;;;31.13;100.00;102144.97;10481558;28;20389;-80
2023/08/20 19:23:19;;;;;;;0.00;0.00;;;;;;;30.81;100.00;102153.31;10477207;28;20052;-79
2023/08/20 19:28:21;;;;;;;0.00;0.00;;;;;;;30.40;100.00;102142.44;10446303;28;20106;-80
2023/08/20 19:33:23;;;;;;;0.00;0.00;;;;;;;28.95;100.00;102132.41;10478397;28;20040;-78
2023/08/20 19:38:25;;;;;;;0.10;0.00;;;;;;;28.53;100.00;102140.78;10485452;28;20033;-78
2023/08/20 19:43:26;;;;;;;0.00;0.00;;;;;;;29.87;100.00;102148.81;10473679;28;20052;-78
2023/08/20 19:48:28;;;;;;;0.00;0.00;;;;;;;30.42;100.00;102158.38;10475600;28;20051;-78
2023/08/20 19:53:29;;;;;;;0.03;0.03;;;;;;;28.89;100.00;102153.84;10483459;28;20044;-78
2023/08/20 19:58:31;;;;;;;0.00;0.00;;;;;;;30.02;100.00;102153.59;10473915;28;20044;-79
2023/08/20 20:03:32;;;;;;;0.00;0.00;;;;;;;30.48;100.00;102166.09;10497072;28;20048;-78
2023/08/20 20:08:34;;;;;;;0.00;0.00;;;;;;;29.96;100.00;102169.78;10496870;28;20036;-78
2023/08/20 20:13:35;;;;;;;0.00;0.00;;;;;;;30.15;100.00;102164.66;10487588;28;20048;-81
2023/08/20 20:18:37;;;;;;;0.00;0.00;;;;;;;29.68;100.00;102170.69;10466246;28;20094;-83
2023/08/20 20:23:39;;;;;;;0.00;0.00;;;;;;;29.91;100.00;102171.72;10474605;28;20105;-78
2023/08/20 20:28:40;;;;;;;0.00;0.00;;;;;;;30.06;100.00;102183.59;10483612;28;20101;-78
2023/08/20 20:33:42;;;;;;;3.63;0.10;;;;;;;29.49;100.00;102185.53;10487810;28;20047;-78
2023/08/20 20:38:44;;;;;;;0.17;0.00;;;;;;;29.81;100.00;102170.28;10486738;28;20150;-79
2023/08/20 20:43:45;;;;;;;0.00;0.00;;;;;;;29.82;100.00;102183.50;10491573;28;20048;-79
2023/08/20 20:48:47;;;;;;;0.00;0.00;;;;;;;29.83;100.00;102184.38;10488748;28;20033;-78
2023/08/20 20:53:48;;;;;;;0.00;0.00;;;;;;;29.76;100.00;102183.72;10488264;28;20526;-79
2023/08/20 20:58:50;;;;;;;0.00;0.00;;;;;;;29.49;100.00;102193.50;10488105;28;20056;-79
2023/08/20 21:03:53;;;;;;;0.00;0.00;;;;;;;29.47;100.00;102188.25;10489461;28;20044;-78
2023/08/20 21:08:56;;;;;;;0.00;0.00;;;;;;;27.93;100.00;102189.22;10485938;28;20051;-78
2023/08/20 21:13:57;;;;;;;0.10;0.00;;;;;;;29.03;100.00;102193.19;10493403;28;20407;-78
2023/08/20 21:18:59;;;;;;;0.00;0.00;;;;;;;28.64;100.00;102202.28;10485382;28;20033;-78
2023/08/20 21:24:00;;;;;;;0.00;0.00;;;;;;;28.86;100.00;102202.53;10470807;28;20052;-78
2023/08/20 21:29:02;;;;;;;0.00;0.00;;;;;;;28.86;100.00;102201.66;10473257;28;20518;-78
2023/08/20 21:34:04;;;;;;;0.00;0.00;;;;;;;28.55;100.00;102202.56;10474189;28;20063;-79
2023/08/20 21:39:05;;;;;;;0.00;0.00;;;;;;;28.64;100.00;102204.94;10455582;28;20120;-78
2023/08/20 21:44:07;;;;;;;0.00;0.00;;;;;;;28.85;100.00;102200.81;10492646;28;20044;-78
2023/08/20 21:49:08;;;;;;;0.00;0.00;;;;;;;28.94;100.00;102211.13;10456186;28;20052;-78
2023/08/20 21:54:10;;;;;;;0.00;0.00;;;;;;;28.65;100.00;102209.31;10489256;28;20103;-78
2023/08/20 21:59:11;;;;;;;0.00;0.00;;;;;;;28.35;100.00;102201.34;10492235;28;20564;-79
2023/08/20 22:04:13;;;;;;;0.00;0.00;;;;;;;27.99;100.00;102212.03;10481067;28;20182;-79
2023/08/20 22:09:15;;;;;;;0.00;0.00;;;;;;;28.25;100.00;102210.50;10491317;28;20450;-79
2023/08/20 22:14:16;;;;;;;0.00;0.00;;;;;;;28.56;100.00;102204.31;10492165;28;20052;-79
2023/08/20 22:19:19;;;;;;;0.00;0.00;;;;;;;27.89;100.00;102208.75;10491762;28;20098;-78
2023/08/20 22:24:21;;;;;;;0.00;0.00;;;;;;;27.98;100.00;102210.28;10480881;28;20052;-79
2023/08/20 22:29:22;;;;;;;0.10;0.00;;;;;;;27.99;100.00;102212.03;10463315;28;20710;-80
2023/08/20 22:34:24;;;;;;;0.00;0.00;;;;;;;27.81;100.00;102222.19;10491405;28;20090;-77
2023/08/20 22:39:25;;;;;;;0.00;0.00;;;;;;;26.81;100.00;102211.34;10478920;28;20094;-79
2023/08/20 22:44:27;;;;;;;0.38;0.22;;;;;;;26.54;100.00;102209.22;10485253;28;20086;-78
2023/08/20 22:49:28;;;;;;;0.00;0.00;;;;;;;28.18;100.00;102213.28;10470886;28;20049;-78
2023/08/20 22:54:30;;;;;;;0.00;0.00;;;;;;;27.57;100.00;102210.47;10483369;28;20730;-77
2023/08/20 22:59:31;;;;;;;0.00;0.00;;;;;;;28.75;100.00;102194.91;10488643;28;20067;-79